ACF weather

Brisbane Archerfield Airport
Brisbane, Queensland, Australia

Public forecast

Using degrees Celsius for public forecast. Weather courtesy of forecast.io.

METAR (pilot weather report)

Closest report is Brisbane International Airport, 12.6 nm (23.3 km) NNE. Retrieved 2017/12/11 21:30 UTC (22 minutes ago):

YBBN 112130Z 19010KT 9999 FEW032 23/15 Q1016 FM2230 14010KT 9999 SCT035

TAF (pilot weather forecast)

Closest forecast is Brisbane International Airport, 12.6 nm (23.3 km) NNE. Retrieved 2017/12/11 18:38 UTC (3 hours ago):

TAF YBBN 111724Z 1118/1224 20006KT 9999 FEW020 BKN040 FM112200 14010KT 9999 SCT035 FM120100 11014KT 9999 FEW035 FM120800 15010KT 9999 FEW020 FM121200 20006KT 9999 SCT020 SCT035 FM122200 13012KT 9999 FEW025